• Join FlightAware (Why Join?)
  • Login
  • US Flag 
01:30AM EDT


 

Airport Tracker/Info


-or-


 

Live Flight TrackerFlight Track Log ✈ AAY592 ✈ 07-Jul-2013 ✈ KLAS - KIWA

Flight Track Log - Related Links

Times and Time Zones

All times are in EDT time to prevent confusion due to time zone crossing. See the AAY592 flight status page for this flight to view local times or setup timezone preferences in your user account.

Time Position Orientation Groundspeed Altitude Reporting Facility
EDT Latitude Longitude Course Direction KTS MPH feet Rate Location/Type
02:16PM 36.0761 -115.1683 270° West 184 212 3,100  Level Los Angeles Center
02:17PM 36.0764 -115.2292 270° West 207 238 4,300 1,800 Climbing Los Angeles Center
02:18PM 36.0286 -115.2875 225° Southwest 276 318 6,400 1,380 Climbing Los Angeles Center
02:19PM 35.9600 -115.2994 188° South 284 327 7,000 720 Climbing Los Angeles Center
02:20PM 35.9303 -115.2842 157° South 279 321 7,500 2,580 Climbing Los Angeles Center
02:20PM 35.8750 -115.2661 165° South 279 321 9,900 2,580 Climbing Los Angeles Center
02:21PM 35.8383 -115.1772 117° Southeast 321 369 11,800 1,860 Climbing Los Angeles Center
02:23PM 35.8253 -114.9919 95° East 385 443 14,600 1,980 Climbing Los Angeles Center
02:24PM 35.8389 -114.8592 83° East 397 457 16,800 2,100 Climbing Los Angeles Center
02:25PM 35.8519 -114.7161 84° East 419 482 19,000 1,740 Climbing Los Angeles Center
02:26PM 35.8619 -114.5983 84° East 430 495 20,500 1,620 Climbing Los Angeles Center
02:27PM 35.8786 -114.4144 84° East 453 521 22,400 1,740 Climbing Los Angeles Center
02:28PM 35.8942 -114.2244 84° East 466 536 24,200 1,620 Climbing Los Angeles Center
02:29PM 35.9094 -114.0608 83° East 479 551 25,800 1,500 Climbing Los Angeles Center
02:30PM 35.9203 -113.8981 85° East 478 550 27,400 1,500 Climbing Los Angeles Center
02:31PM 35.8906 -113.7406 103° East 475 547 29,000 720 Climbing Los Angeles Center
02:32PM 35.8553 -113.5711 104° East 467 537 29,000  Level Los Angeles Center
02:33PM 35.8239 -113.4183 104° East 463 533 29,000  Level Los Angeles Center
02:34PM 35.7931 -113.2669 104° East 459 528 29,000  Level Los Angeles Center
02:35PM 35.7611 -113.1150 104° East 460 529 29,000  Level Los Angeles Center
02:36PM 35.7289 -112.9600 104° East 464 534 29,000  Level Los Angeles Center
02:38PM 35.6692 -112.7558 110° East 466 536 29,000  Level Los Angeles Center
02:39PM 35.6108 -112.6086 116° Southeast 461 531 29,000  Level Los Angeles Center
02:40PM 35.5497 -112.4711 119° Southeast 461 531 29,000  Level Los Angeles Center
02:41PM 35.4558 -112.3767 141° Southeast 440 506 29,000  Level Los Angeles Center
02:42PM 35.3450 -112.3158 156° South 433 498 29,000  Level Los Angeles Center
02:43PM 35.2350 -112.2556 156° South 434 499 29,000  Level Los Angeles Center
02:44PM 35.1236 -112.1950 156° South 435 501 29,000 -900 Level Albuquerque Center
02:45PM 34.9981 -112.1267 156° South 416 479 27,200 -1,800 Descending Albuquerque Center
02:46PM 34.9006 -112.0722 155° Southeast 395 455 25,300 -1,920 Descending Albuquerque Center
02:47PM 34.8061 -112.0219 156° South 378 435 23,300 -2,040 Descending Albuquerque Center
02:48PM 34.7181 -111.9736 156° South 365 420 21,200 -2,160 Descending Albuquerque Center
02:49PM 34.6283 -111.9247 156° South 356 410 18,900 -2,280 Descending Albuquerque Center
02:50PM 34.5158 -111.9019 171° South 347 399 16,600 -2,340 Descending Albuquerque Center
02:51PM 34.4222 -111.9086 183° South 341 392 14,100 -2,160 Descending Albuquerque Center
02:52PM 34.3289 -111.9144 183° South 337 388 12,200 -1,320 Descending Albuquerque Center
02:53PM 34.2425 -111.9194 183° South 322 371 11,400 -660 Descending Albuquerque Center
02:54PM 34.1619 -111.9247 183° South 296 341 10,900 -480 Descending Albuquerque Center
02:55PM 34.0647 -111.9092 172° South 307 353 10,500 -540 Descending Albuquerque Center
02:56PM 33.9975 -111.8475 143° Southeast 306 352 9,900 -660 Descending Albuquerque Center
02:57PM 33.9375 -111.7933 143° Southeast 294 338 9,200 -900 Descending Albuquerque Center
02:58PM 33.8619 -111.7261 144° Southeast 285 328 8,100 -1,020 Descending Albuquerque Center
02:59PM 33.7989 -111.6689 143° Southeast 285 328 7,100 -600 Descending Albuquerque Center
03:00PM 33.7331 -111.6181 147° Southeast 282 325 6,900 -120 Descending Albuquerque Center
03:01PM 33.6633 -111.5764 154° Southeast 281 323 6,900  Level Albuquerque Center
03:02PM 33.5919 -111.5353 154° Southeast 284 327 6,900 -480 Level Albuquerque Center
03:03PM 33.5133 -111.5400 183° South 281 323 6,000 -720 Descending Albuquerque Center
03:04PM 33.4350 -111.5433 182° South 233 268 5,500 -480 Descending Albuquerque Center
03:06PM 33.3667 -111.5500 185° South 220 253 5,000 -720 Descending Phoenix TRACON
03:07PM 33.3000 -111.5333 168° South 210 242 4,000 -960 Descending Phoenix TRACON
03:08PM 33.2667 -111.5667 220° Southwest 179 206 3,100 -900 Descending Phoenix TRACON
03:09PM 33.2667 -111.6167 270° West 160 184 2,300 -780 Descending Phoenix TRACON
03:10PM 33.2903 -111.6397 321° Northwest 153 176 1,600 -720 Descending Albuquerque Center